createdAt,value
2018-10-20T00:00:11.370Z,11.4
2018-10-20T00:01:11.064Z,11.32
2018-10-20T00:02:10.986Z,11.44
2018-10-20T00:03:11.506Z,11.4
2018-10-20T00:04:11.248Z,11.45
2018-10-20T00:05:12.071Z,11.45
2018-10-20T00:06:11.229Z,11.36
2018-10-20T00:07:11.409Z,11.36
2018-10-20T00:08:11.225Z,11.37
2018-10-20T00:09:11.524Z,11.41
2018-10-20T00:10:11.313Z,11.33
2018-10-20T00:11:11.394Z,11.44
2018-10-20T00:12:11.222Z,11.4
2018-10-20T00:13:11.371Z,11.41
2018-10-20T00:14:11.461Z,11.47
2018-10-20T00:15:11.472Z,11.4
2018-10-20T00:16:11.455Z,11.37
2018-10-20T00:17:11.784Z,11.29
2018-10-20T00:18:11.188Z,11.43
2018-10-20T00:19:11.733Z,11.36
2018-10-20T00:20:11.246Z,11.37
2018-10-20T00:21:11.192Z,11.29
2018-10-20T00:22:11.193Z,11.37
2018-10-20T00:23:11.776Z,11.29
2018-10-20T00:24:10.901Z,11.32
2018-10-20T00:25:11.402Z,11.36
2018-10-20T00:26:10.899Z,11.41
2018-10-20T00:27:11.423Z,11.33
2018-10-20T00:28:11.416Z,11.37
2018-10-20T00:29:10.908Z,11.36
2018-10-20T00:30:11.033Z,11.4
2018-10-20T00:31:11.360Z,11.35
2018-10-20T00:32:11.384Z,11.32
2018-10-20T00:33:11.394Z,11.33
2018-10-20T00:34:11.221Z,11.23
2018-10-20T00:35:11.263Z,11.18
2018-10-20T00:36:11.429Z,11.23
2018-10-20T00:37:11.596Z,11.25
2018-10-20T00:38:11.117Z,11.19
2018-10-20T00:39:10.962Z,11.14
2018-10-20T00:40:11.670Z,11.14
2018-10-20T00:41:11.361Z,11.11
2018-10-20T00:42:11.107Z,11.12
2018-10-20T00:43:11.711Z,11.1
2018-10-20T00:44:11.338Z,11.11
2018-10-20T00:45:11.583Z,11.08
2018-10-20T00:46:11.636Z,11.05
2018-10-20T00:47:11.077Z,11.12
2018-10-20T00:48:11.320Z,11.11
2018-10-20T00:49:11.275Z,11.08
2018-10-20T00:50:11.635Z,11.05
2018-10-20T00:51:11.062Z,11.1
2018-10-20T00:52:11.651Z,11.15
2018-10-20T00:53:11.300Z,11.12
2018-10-20T00:54:11.042Z,11.12
2018-10-20T00:55:10.924Z,11.12
2018-10-20T00:56:11.283Z,11.19
2018-10-20T00:57:11.027Z,11.1
2018-10-20T00:58:11.613Z,11.07
2018-10-20T00:59:11.279Z,11.05
2018-10-20T01:00:11.461Z,11.17
2018-10-20T01:01:11.567Z,11.14
2018-10-20T01:02:11.262Z,11.18
2018-10-20T01:03:11.248Z,11.05
2018-10-20T01:04:11.104Z,11.12
2018-10-20T01:05:11.264Z,11.11
2018-10-20T01:06:10.977Z,11.1
2018-10-20T01:07:11.277Z,11.14
2018-10-20T01:08:12.042Z,11.12
2018-10-20T01:09:10.966Z,11.08
2018-10-20T01:10:11.552Z,11.12
2018-10-20T01:11:11.236Z,11.04
2018-10-20T01:12:10.965Z,11.1
2018-10-20T01:13:11.147Z,11.14
2018-10-20T01:14:10.961Z,11.17
2018-10-20T01:15:11.243Z,11.19
2018-10-20T01:16:11.469Z,11.12
2018-10-20T01:17:10.959Z,11.14
2018-10-20T01:18:10.927Z,11.14
2018-10-20T01:19:11.086Z,11.02
2018-10-20T01:20:11.212Z,11
2018-10-20T01:21:11.183Z,10.99
2018-10-20T01:22:11.425Z,10.99
2018-10-20T01:23:10.911Z,10.93
2018-10-20T01:24:10.893Z,10.94
2018-10-20T01:25:11.096Z,11.07
2018-10-20T01:26:10.905Z,10.97
2018-10-20T01:27:11.146Z,11.05
2018-10-20T01:28:11.457Z,11
2018-10-20T01:29:10.893Z,11.02
2018-10-20T01:30:10.935Z,10.97
2018-10-20T01:31:11.125Z,10.97
2018-10-20T01:32:11.186Z,10.93
2018-10-20T01:33:10.863Z,10.86
2018-10-20T01:34:10.953Z,10.93
2018-10-20T01:35:11.157Z,10.9
2018-10-20T01:36:11.119Z,10.82
2018-10-20T01:37:11.090Z,10.86
2018-10-20T01:38:11.094Z,10.92
2018-10-20T01:39:11.098Z,10.93
2018-10-20T01:40:11.387Z,10.9
2018-10-20T01:41:10.827Z,10.9
2018-10-20T01:42:11.081Z,10.99
2018-10-20T01:43:11.405Z,10.93
2018-10-20T01:44:11.077Z,10.93
2018-10-20T01:45:11.296Z,10.99
2018-10-20T01:46:11.471Z,10.84
2018-10-20T01:47:10.803Z,10.89
2018-10-20T01:48:10.851Z,10.9
2018-10-20T01:49:11.364Z,10.76
2018-10-20T01:50:11.087Z,10.87
2018-10-20T01:51:10.814Z,10.82
2018-10-20T01:52:11.351Z,10.72
2018-10-20T01:53:11.026Z,10.74
2018-10-20T01:54:11.034Z,10.78
2018-10-20T01:55:11.287Z,10.75
2018-10-20T01:56:10.758Z,10.78
2018-10-20T01:57:11.026Z,10.74
2018-10-20T01:58:11.355Z,10.72
2018-10-20T01:59:10.747Z,10.71
2018-10-20T02:00:11.065Z,10.74
2018-10-20T02:01:11.017Z,10.74
2018-10-20T02:02:11.058Z,10.72
2018-10-20T02:03:10.986Z,10.76
2018-10-20T02:04:10.923Z,10.9
2018-10-20T02:05:11.067Z,10.92
2018-10-20T02:06:10.748Z,10.94
2018-10-20T02:07:11.205Z,10.79
2018-10-20T02:08:10.971Z,10.86
2018-10-20T02:09:10.449Z,10.81
2018-10-20T02:10:10.919Z,10.82
2018-10-20T02:11:10.956Z,10.84
2018-10-20T02:12:10.933Z,10.86
2018-10-20T02:13:11.211Z,10.86
2018-10-20T02:14:10.673Z,10.72
2018-10-20T02:15:10.793Z,10.69
2018-10-20T02:16:11.179Z,10.79
2018-10-20T02:17:10.652Z,10.74
2018-10-20T02:18:10.660Z,10.74
2018-10-20T02:19:11.239Z,10.68
2018-10-20T02:20:10.586Z,10.72
2018-10-20T02:21:10.895Z,10.72
2018-10-20T02:22:10.831Z,10.72
2018-10-20T02:23:10.882Z,10.75
2018-10-20T02:24:10.616Z,10.79
2018-10-20T02:25:11.361Z,10.78
2018-10-20T02:26:10.885Z,10.79
2018-10-20T02:27:10.869Z,10.79
2018-10-20T02:28:11.095Z,10.78
2018-10-20T02:29:10.615Z,10.75
2018-10-20T02:30:11.471Z,10.74
2018-10-20T02:31:10.835Z,10.67
2018-10-20T02:32:10.840Z,10.68
2018-10-20T02:33:10.343Z,10.72
2018-10-20T02:34:11.147Z,10.71
2018-10-20T02:35:11.136Z,10.75
2018-10-20T02:36:10.574Z,10.74
2018-10-20T02:37:10.647Z,10.71
2018-10-20T02:38:10.553Z,10.71
2018-10-20T02:39:10.818Z,10.75
2018-10-20T02:40:10.918Z,10.71
2018-10-20T02:41:10.801Z,10.76
2018-10-20T02:42:10.288Z,10.76
2018-10-20T02:43:11.122Z,10.75
2018-10-20T02:44:10.795Z,10.71
2018-10-20T02:45:11.029Z,10.74
2018-10-20T02:46:11.022Z,10.71
2018-10-20T02:47:10.789Z,10.71
2018-10-20T02:48:10.517Z,10.75
2018-10-20T02:49:11.093Z,10.74
2018-10-20T02:50:10.776Z,10.79
2018-10-20T02:51:10.496Z,10.79
2018-10-20T02:52:10.591Z,10.84
2018-10-20T02:53:10.504Z,10.82
2018-10-20T02:54:10.477Z,10.86
2018-10-20T02:55:10.392Z,10.84
2018-10-20T02:56:10.468Z,10.92
2018-10-20T02:57:10.474Z,10.96
2018-10-20T02:58:10.313Z,11.04
2018-10-20T02:59:10.465Z,10.94
2018-10-20T03:00:10.382Z,11.14
2018-10-20T03:01:11.003Z,11.11
2018-10-20T03:02:10.193Z,11.11
2018-10-20T03:03:10.454Z,11.12
2018-10-20T03:04:10.988Z,11.04
2018-10-20T03:05:10.631Z,11.1
2018-10-20T03:06:10.425Z,11.07
2018-10-20T03:07:10.925Z,11.12
2018-10-20T03:08:10.736Z,11.05
2018-10-20T03:09:10.671Z,11.07
2018-10-20T03:10:11.234Z,11.02
2018-10-20T03:11:10.418Z,11.07
2018-10-20T03:12:10.420Z,11.1
2018-10-20T03:13:10.857Z,11.14
2018-10-20T03:14:10.677Z,11.1
2018-10-20T03:15:10.540Z,11.17
2018-10-20T03:16:10.963Z,11.07
2018-10-20T03:17:10.376Z,11.07
2018-10-20T03:18:10.640Z,11.07
2018-10-20T03:19:10.623Z,10.99
2018-10-20T03:20:10.244Z,10.97
2018-10-20T03:21:10.621Z,10.86
2018-10-20T03:22:10.728Z,10.71
2018-10-20T03:23:10.363Z,10.74
2018-10-20T03:24:10.348Z,10.63
2018-10-20T03:25:11.033Z,10.76
2018-10-20T03:26:10.339Z,10.69
2018-10-20T03:27:10.608Z,10.72
2018-10-20T03:28:10.792Z,10.74
2018-10-20T03:29:10.596Z,10.75
2018-10-20T03:30:10.490Z,10.75
2018-10-20T03:31:10.596Z,10.84
2018-10-20T03:32:10.590Z,10.86
2018-10-20T03:33:10.307Z,10.84
2018-10-20T03:34:10.890Z,10.79
2018-10-20T03:35:10.452Z,10.75
2018-10-20T03:36:10.546Z,10.78
2018-10-20T03:37:10.796Z,10.75
2018-10-20T03:38:10.555Z,10.86
2018-10-20T03:39:10.281Z,10.97
2018-10-20T03:40:10.532Z,10.89
2018-10-20T03:41:10.268Z,10.97
2018-10-20T03:42:10.287Z,10.93
2018-10-20T03:43:10.821Z,10.96
2018-10-20T03:44:10.269Z,10.99
2018-10-20T03:45:10.358Z,10.99
2018-10-20T03:46:10.888Z,10.94
2018-10-20T03:47:10.490Z,10.96
2018-10-20T03:48:10.238Z,11.05
2018-10-20T03:49:10.812Z,11.07
2018-10-20T03:50:10.629Z,11.07
2018-10-20T03:51:10.219Z,11.17
2018-10-20T03:52:10.809Z,11.17
2018-10-20T03:53:10.486Z,11.08
2018-10-20T03:54:09.948Z,11.19
2018-10-20T03:55:10.132Z,11.15
2018-10-20T03:56:10.212Z,11.14
2018-10-20T03:57:09.939Z,11.22
2018-10-20T03:58:10.377Z,11.18
2018-10-20T03:59:10.189Z,11.19
2018-10-20T04:00:10.632Z,11.3
2018-10-20T04:01:10.890Z,11.29
2018-10-20T04:02:09.920Z,11.27
2018-10-20T04:03:10.451Z,11.41
2018-10-20T04:04:11.012Z,11.33
2018-10-20T04:05:10.207Z,11.43
2018-10-20T04:06:10.168Z,11.41
2018-10-20T04:07:10.748Z,11.43
2018-10-20T04:08:10.154Z,11.52
2018-10-20T04:09:10.157Z,11.41
2018-10-20T04:10:10.546Z,11.55
2018-10-20T04:11:10.166Z,11.48
2018-10-20T04:12:10.150Z,11.52
2018-10-20T04:13:10.664Z,11.51
2018-10-20T04:14:10.385Z,11.59
2018-10-20T04:15:10.266Z,11.52
2018-10-20T04:16:10.658Z,11.5
2018-10-20T04:17:10.387Z,11.51
2018-10-20T04:18:10.103Z,11.5
2018-10-20T04:19:09.947Z,11.5
2018-10-20T04:20:10.500Z,11.57
2018-10-20T04:21:10.106Z,11.63
2018-10-20T04:22:10.229Z,11.57
2018-10-20T04:23:10.341Z,11.59
2018-10-20T04:24:10.106Z,11.59
2018-10-20T04:25:10.635Z,11.6
2018-10-20T04:26:10.335Z,11.55
2018-10-20T04:27:10.328Z,11.51
2018-10-20T04:28:10.623Z,11.51
2018-10-20T04:29:09.807Z,11.54
2018-10-20T04:30:10.521Z,11.44
2018-10-20T04:31:10.626Z,11.43
2018-10-20T04:32:10.353Z,11.4
2018-10-20T04:33:09.797Z,11.44
2018-10-20T04:34:10.337Z,11.57
2018-10-20T04:35:10.062Z,11.51
2018-10-20T04:36:10.340Z,11.51
2018-10-20T04:37:10.360Z,11.5
2018-10-20T04:38:10.280Z,11.51
2018-10-20T04:39:10.296Z,11.62
2018-10-20T04:40:10.048Z,11.65
2018-10-20T04:41:10.049Z,11.7
2018-10-20T04:42:10.268Z,11.72
2018-10-20T04:43:09.896Z,11.69
2018-10-20T04:44:10.264Z,11.73
2018-10-20T04:45:09.779Z,11.66
2018-10-20T04:46:10.236Z,11.66
2018-10-20T04:47:10.281Z,11.6
2018-10-20T04:48:10.248Z,11.59
2018-10-20T04:49:10.463Z,11.59
2018-10-20T04:50:10.273Z,11.62
2018-10-20T04:51:10.242Z,11.52
2018-10-20T04:52:10.512Z,11.62
2018-10-20T04:53:09.979Z,11.47
2018-10-20T04:54:09.970Z,11.44
2018-10-20T04:55:10.616Z,11.43
2018-10-20T04:56:09.999Z,11.4
2018-10-20T04:57:10.243Z,11.41
2018-10-20T04:58:10.111Z,11.43
2018-10-20T04:59:09.947Z,11.4
2018-10-20T05:00:10.045Z,11.44
2018-10-20T05:01:10.222Z,11.47
2018-10-20T05:02:09.679Z,11.51
2018-10-20T05:03:09.695Z,11.52
2018-10-20T05:04:10.877Z,11.52
2018-10-20T05:05:10.333Z,11.43
2018-10-20T05:06:09.978Z,11.41
2018-10-20T05:07:10.350Z,11.36
2018-10-20T05:08:09.939Z,11.15
2018-10-20T05:09:10.190Z,11.14
2018-10-20T05:10:10.412Z,11.1
2018-10-20T05:11:10.168Z,11.02
2018-10-20T05:12:09.905Z,10.97
2018-10-20T05:13:10.445Z,11
2018-10-20T05:14:10.164Z,10.92
2018-10-20T05:15:09.915Z,10.94
2018-10-20T05:16:10.475Z,10.96
2018-10-20T05:17:10.136Z,10.86
2018-10-20T05:18:10.124Z,10.93
2018-10-20T05:19:10.041Z,11.05
2018-10-20T05:20:10.204Z,11.04
2018-10-20T05:21:09.607Z,11.12
2018-10-20T05:22:09.640Z,11.18
2018-10-20T05:23:09.591Z,11.23
2018-10-20T05:24:09.835Z,11.29
2018-10-20T05:25:10.274Z,11.32
2018-10-20T05:26:09.862Z,11.35
2018-10-20T05:27:09.607Z,11.32
2018-10-20T05:28:10.024Z,11.37
2018-10-20T05:29:09.820Z,11.41
2018-10-20T05:30:09.684Z,11.36
2018-10-20T05:31:10.416Z,11.41
2018-10-20T05:32:10.068Z,11.47
2018-10-20T05:33:09.846Z,11.36
2018-10-20T05:34:10.277Z,11.4
2018-10-20T05:35:09.889Z,11.35
2018-10-20T05:36:09.789Z,11.41
2018-10-20T05:37:09.985Z,11.35
2018-10-20T05:38:09.795Z,11.35
2018-10-20T05:39:09.837Z,11.32
2018-10-20T05:40:10.531Z,11.41
2018-10-20T05:41:09.768Z,11.37
2018-10-20T05:42:09.752Z,11.32
2018-10-20T05:43:09.875Z,11.27
2018-10-20T05:44:09.742Z,11.26
2018-10-20T05:45:09.966Z,11.3
2018-10-20T05:46:09.560Z,11.18
2018-10-20T05:47:09.843Z,11.17
2018-10-20T05:48:09.751Z,10.93
2018-10-20T05:49:10.117Z,10.92
2018-10-20T05:50:10.191Z,10.84
2018-10-20T05:51:09.974Z,10.87
2018-10-20T05:52:09.543Z,10.86
2018-10-20T05:53:09.460Z,10.76
2018-10-20T05:54:09.961Z,10.82
2018-10-20T05:55:10.563Z,10.81
2018-10-20T05:56:09.960Z,10.82
2018-10-20T05:57:09.707Z,10.79
2018-10-20T05:58:10.258Z,10.79
2018-10-20T05:59:09.678Z,10.86
2018-10-20T06:00:09.752Z,10.89
2018-10-20T06:01:10.120Z,10.81
2018-10-20T06:02:09.919Z,10.92
2018-10-20T06:03:09.920Z,10.86
2018-10-20T06:04:10.550Z,10.87
2018-10-20T06:05:09.738Z,10.89
2018-10-20T06:06:09.391Z,10.82
2018-10-20T06:07:10.096Z,10.87
2018-10-20T06:08:09.640Z,10.81
2018-10-20T06:09:09.897Z,10.75
2018-10-20T06:10:10.320Z,10.72
2018-10-20T06:11:09.869Z,10.78
2018-10-20T06:12:09.946Z,10.74
2018-10-20T06:13:10.091Z,10.82
2018-10-20T06:14:09.340Z,10.86
2018-10-20T06:15:09.972Z,10.82
2018-10-20T06:16:10.189Z,10.82
2018-10-20T06:17:09.608Z,10.94
2018-10-20T06:18:09.842Z,10.89
2018-10-20T06:19:10.278Z,10.89
2018-10-20T06:20:10.053Z,10.93
2018-10-20T06:21:09.834Z,10.94
2018-10-20T06:22:10.196Z,10.9
2018-10-20T06:23:09.557Z,10.86
2018-10-20T06:24:09.556Z,10.86
2018-10-20T06:25:09.834Z,10.87
2018-10-20T06:26:09.289Z,10.92
2018-10-20T06:27:09.804Z,10.93
2018-10-20T06:28:09.666Z,10.86
2018-10-20T06:29:09.786Z,10.96
2018-10-20T06:30:09.368Z,10.92
2018-10-20T06:31:09.682Z,10.96
2018-10-20T06:32:10.028Z,10.96
2018-10-20T06:33:09.515Z,11.08
2018-10-20T06:34:09.320Z,11.02
2018-10-20T06:35:09.752Z,11.04
2018-10-20T06:36:09.501Z,11.04
2018-10-20T06:37:09.984Z,10.99
2018-10-20T06:38:09.751Z,11.05
2018-10-20T06:39:09.743Z,11.04
2018-10-20T06:40:10.380Z,10.93
2018-10-20T06:41:09.503Z,10.93
2018-10-20T06:42:09.473Z,11.02
2018-10-20T06:43:09.999Z,10.93
2018-10-20T06:44:09.718Z,10.87
2018-10-20T06:45:09.641Z,10.79
2018-10-20T06:46:09.686Z,10.75
2018-10-20T06:47:09.853Z,10.74
2018-10-20T06:48:09.344Z,10.71
2018-10-20T06:49:09.896Z,10.75
2018-10-20T06:50:09.567Z,10.72
2018-10-20T06:51:09.707Z,10.71
2018-10-20T06:52:09.434Z,10.61
2018-10-20T06:53:09.695Z,10.61
2018-10-20T06:54:09.415Z,10.59
2018-10-20T06:55:10.066Z,10.59
2018-10-20T06:56:09.451Z,10.68
2018-10-20T06:57:09.585Z,10.74
2018-10-20T06:58:09.925Z,10.94
2018-10-20T06:59:10.068Z,10.93
2018-10-20T07:00:10.470Z,11.05
2018-10-20T07:01:09.233Z,11
2018-10-20T07:02:09.110Z,11.07
2018-10-20T07:03:09.577Z,11.12
2018-10-20T07:04:09.778Z,11.25
2018-10-20T07:05:09.827Z,11.36
2018-10-20T07:06:09.614Z,11.45
2018-10-20T07:07:09.939Z,11.54
2018-10-20T07:08:09.346Z,11.73
2018-10-20T07:09:09.550Z,11.91
2018-10-20T07:10:09.819Z,11.97
2018-10-20T07:11:09.333Z,12.2
2018-10-20T07:12:09.336Z,12.22
2018-10-20T07:13:09.499Z,12.39
2018-10-20T07:14:09.576Z,12.4
2018-10-20T07:15:09.948Z,12.46
2018-10-20T07:16:09.141Z,12.55
2018-10-20T07:17:09.583Z,12.61
2018-10-20T07:18:09.598Z,12.82
2018-10-20T07:19:09.851Z,12.83
2018-10-20T07:20:09.365Z,13.01
2018-10-20T07:21:09.123Z,13.18
2018-10-20T07:22:09.315Z,13.23
2018-10-20T07:23:09.572Z,13.3
2018-10-20T07:24:09.591Z,13.38
2018-10-20T07:25:09.583Z,13.5
2018-10-20T07:26:09.559Z,13.52
2018-10-20T07:27:09.898Z,13.54
2018-10-20T07:28:09.573Z,13.77
2018-10-20T07:29:09.564Z,13.79
2018-10-20T07:30:09.088Z,13.93
2018-10-20T07:31:09.608Z,13.9
2018-10-20T07:32:09.019Z,14
2018-10-20T07:33:09.383Z,14.14
2018-10-20T07:34:09.267Z,14.12
2018-10-20T07:35:10.175Z,14.05
2018-10-20T07:36:09.547Z,14.1
2018-10-20T07:37:09.825Z,14.1
2018-10-20T07:38:09.263Z,14.17
2018-10-20T07:39:09.853Z,14.22
2018-10-20T07:40:09.411Z,14.18
2018-10-20T07:41:09.006Z,14.2
2018-10-20T07:42:09.275Z,14.15
2018-10-20T07:43:09.752Z,14.26
2018-10-20T07:44:09.249Z,14.2
2018-10-20T07:45:09.551Z,14.17
2018-10-20T07:46:09.307Z,14.07
2018-10-20T07:47:09.504Z,13.99
2018-10-20T07:48:09.507Z,13.93
2018-10-20T07:49:09.361Z,13.97
2018-10-20T07:50:09.344Z,14.04
2018-10-20T07:51:09.790Z,14.11
2018-10-20T07:52:09.245Z,14.12
2018-10-20T07:53:09.247Z,14.33
2018-10-20T07:54:09.238Z,14.37
2018-10-20T07:55:09.922Z,14.59
2018-10-20T07:56:09.499Z,14.65
2018-10-20T07:57:09.734Z,14.82
2018-10-20T07:58:09.510Z,14.92
2018-10-20T07:59:09.231Z,14.91
2018-10-20T08:00:09.302Z,14.84
2018-10-20T08:01:09.371Z,14.77
2018-10-20T08:02:08.974Z,14.77
2018-10-20T08:03:09.719Z,14.81
2018-10-20T08:04:09.515Z,14.89
2018-10-20T08:05:09.595Z,14.92
2018-10-20T08:06:09.511Z,14.86
2018-10-20T08:07:09.619Z,14.91
2018-10-20T08:08:09.478Z,15.02
2018-10-20T08:09:09.521Z,15.06
2018-10-20T08:10:09.594Z,15.15
2018-10-20T08:11:09.242Z,15.18
2018-10-20T08:12:09.240Z,15.31
2018-10-20T08:13:09.232Z,15.37
2018-10-20T08:14:09.491Z,15.33
2018-10-20T08:15:09.561Z,15.21
2018-10-20T08:16:09.215Z,15.06
2018-10-20T08:17:09.219Z,14.96
2018-10-20T08:18:09.399Z,14.89
2018-10-20T08:19:09.464Z,14.81
2018-10-20T08:20:09.628Z,14.78
2018-10-20T08:21:09.558Z,14.59
2018-10-20T08:22:09.220Z,14.48
2018-10-20T08:23:09.477Z,14.33
2018-10-20T08:24:09.283Z,14.29
2018-10-20T08:25:09.251Z,14.14
2018-10-20T08:26:08.960Z,14.05
2018-10-20T08:27:09.077Z,13.96
2018-10-20T08:28:09.468Z,13.95
2018-10-20T08:29:09.224Z,13.95
2018-10-20T08:30:09.391Z,13.95
2018-10-20T08:31:09.469Z,13.96
2018-10-20T08:32:09.211Z,13.96
2018-10-20T08:33:09.271Z,14
2018-10-20T08:34:09.217Z,14.12
2018-10-20T08:35:09.451Z,14.15
2018-10-20T08:36:09.757Z,14.26
2018-10-20T08:37:09.211Z,14.35
2018-10-20T08:38:09.197Z,14.35
2018-10-20T08:39:09.479Z,14.36
2018-10-20T08:40:10.471Z,14.2
2018-10-20T08:41:09.460Z,14.2
2018-10-20T08:42:10.008Z,14.22
2018-10-20T08:43:09.444Z,14.25
2018-10-20T08:44:09.449Z,14.2
2018-10-20T08:45:09.730Z,14.33
2018-10-20T08:46:09.452Z,14.29
2018-10-20T08:47:09.192Z,14.35
2018-10-20T08:48:09.412Z,14.33
2018-10-20T08:49:09.451Z,14.43
2018-10-20T08:50:09.498Z,14.53
2018-10-20T08:51:09.961Z,14.55
2018-10-20T08:52:09.192Z,14.58
2018-10-20T08:53:09.198Z,14.48
2018-10-20T08:54:09.860Z,14.6
2018-10-20T08:55:10.282Z,14.62
2018-10-20T08:56:09.187Z,14.58
2018-10-20T08:57:09.924Z,14.62
2018-10-20T08:58:09.429Z,14.69
2018-10-20T08:59:09.186Z,14.6
2018-10-20T09:00:09.736Z,14.77
2018-10-20T09:01:08.932Z,14.85
2018-10-20T09:02:09.438Z,14.79
2018-10-20T09:03:09.317Z,14.82
2018-10-20T09:04:09.430Z,14.92
2018-10-20T09:05:09.093Z,14.89
2018-10-20T09:06:09.431Z,14.86
2018-10-20T09:07:09.449Z,14.92
2018-10-20T09:08:09.184Z,14.96
2018-10-20T09:09:09.827Z,15.02
2018-10-20T09:10:09.243Z,15.04
2018-10-20T09:11:09.435Z,14.96
2018-10-20T09:12:09.788Z,15.02
2018-10-20T09:13:09.166Z,15
2018-10-20T09:14:09.164Z,15.04
2018-10-20T09:15:09.320Z,14.92
2018-10-20T09:16:09.418Z,14.81
2018-10-20T09:17:09.212Z,14.82
2018-10-20T09:18:09.308Z,14.82
2018-10-20T09:19:09.430Z,14.72
2018-10-20T09:20:09.552Z,14.78
2018-10-20T09:21:09.404Z,14.72
2018-10-20T09:22:08.902Z,14.79
2018-10-20T09:23:09.177Z,14.85
2018-10-20T09:24:09.590Z,14.97
2018-10-20T09:25:09.480Z,15
2018-10-20T09:26:09.424Z,15.19
2018-10-20T09:27:09.686Z,15.18
2018-10-20T09:28:09.153Z,15.17
2018-10-20T09:29:09.171Z,15.06
2018-10-20T09:30:09.045Z,15
2018-10-20T09:31:08.951Z,15.02
2018-10-20T09:32:09.415Z,15.21
2018-10-20T09:33:09.242Z,15.24
2018-10-20T09:34:09.155Z,15.33
2018-10-20T09:35:09.525Z,15.25
2018-10-20T09:36:09.752Z,15.35
2018-10-20T09:37:09.155Z,15.46
2018-10-20T09:38:09.155Z,15.55
2018-10-20T09:39:09.715Z,15.46
2018-10-20T09:40:09.477Z,15.47
2018-10-20T09:41:09.156Z,15.42
2018-10-20T09:42:09.321Z,15.51
2018-10-20T09:43:09.185Z,15.55
2018-10-20T09:44:09.280Z,15.62
2018-10-20T09:45:09.067Z,15.64
2018-10-20T09:46:09.137Z,15.61
2018-10-20T09:47:08.885Z,15.67
2018-10-20T09:48:09.747Z,15.73
2018-10-20T09:49:09.156Z,15.83
2018-10-20T09:50:09.540Z,15.83
2018-10-20T09:51:09.413Z,15.79
2018-10-20T09:52:08.904Z,15.7
2018-10-20T09:53:09.161Z,15.61
2018-10-20T09:54:09.542Z,15.42
2018-10-20T09:55:09.074Z,15.47
2018-10-20T09:56:09.348Z,15.44
2018-10-20T09:57:09.401Z,15.46
2018-10-20T09:58:09.210Z,15.55
2018-10-20T09:59:09.421Z,15.58
2018-10-20T10:00:09.715Z,15.67
2018-10-20T10:01:09.915Z,15.72
2018-10-20T10:02:09.827Z,15.7
2018-10-20T10:03:09.399Z,15.7
2018-10-20T10:04:08.893Z,15.62
2018-10-20T10:05:09.437Z,15.65
2018-10-20T10:06:09.947Z,15.83
2018-10-20T10:07:09.402Z,15.82
2018-10-20T10:08:09.673Z,16.04
2018-10-20T10:09:09.783Z,16.13
2018-10-20T10:10:09.192Z,16.13
2018-10-20T10:11:08.881Z,16.26
2018-10-20T10:12:09.440Z,16.31
2018-10-20T10:13:09.219Z,16.42
2018-10-20T10:14:08.978Z,16.5
2018-10-20T10:15:08.891Z,16.58
2018-10-20T10:16:09.168Z,16.64
2018-10-20T10:17:09.155Z,16.54
2018-10-20T10:18:08.957Z,16.65
2018-10-20T10:19:08.916Z,16.68
2018-10-20T10:20:09.446Z,16.68
2018-10-20T10:21:08.897Z,16.71
2018-10-20T10:22:09.140Z,16.79
2018-10-20T10:23:09.145Z,16.76
2018-10-20T10:24:09.615Z,16.74
2018-10-20T10:25:09.262Z,16.81
2018-10-20T10:26:09.661Z,16.86
2018-10-20T10:27:09.443Z,16.89
2018-10-20T10:28:08.866Z,16.86
2018-10-20T10:29:09.150Z,16.78
2018-10-20T10:30:09.371Z,16.83
2018-10-20T10:31:09.494Z,16.83
2018-10-20T10:32:09.671Z,16.76
2018-10-20T10:33:09.410Z,16.71
2018-10-20T10:34:08.875Z,16.71
2018-10-20T10:35:09.193Z,16.74
2018-10-20T10:36:10.090Z,16.69
2018-10-20T10:37:09.576Z,16.65
2018-10-20T10:38:09.141Z,16.56
2018-10-20T10:39:09.153Z,16.64
2018-10-20T10:40:09.430Z,16.68
2018-10-20T10:41:09.395Z,16.51
2018-10-20T10:42:09.294Z,16.57
2018-10-20T10:43:09.619Z,16.51
2018-10-20T10:44:08.873Z,16.53
2018-10-20T10:45:09.491Z,16.49
2018-10-20T10:46:09.649Z,16.43
2018-10-20T10:47:09.142Z,16.47
2018-10-20T10:48:08.984Z,16.57
2018-10-20T10:49:09.703Z,16.69
2018-10-20T10:50:09.499Z,16.79
2018-10-20T10:51:09.133Z,16.89
2018-10-20T10:52:09.402Z,16.93
2018-10-20T10:53:09.124Z,17.02
2018-10-20T10:54:09.600Z,17.12
2018-10-20T10:55:09.344Z,17.2
2018-10-20T10:56:09.469Z,17.14
2018-10-20T10:57:09.141Z,17.23
2018-10-20T10:58:09.400Z,17.3
2018-10-20T10:59:09.149Z,17.46
2018-10-20T11:00:09.780Z,17.38
2018-10-20T11:01:09.131Z,17.36
2018-10-20T11:02:09.438Z,17.48
2018-10-20T11:03:09.133Z,17.49
2018-10-20T11:04:09.412Z,17.39
2018-10-20T11:05:09.136Z,17.42
2018-10-20T11:06:09.180Z,17.33
2018-10-20T11:07:09.425Z,17.24
2018-10-20T11:08:09.155Z,17.27
2018-10-20T11:09:09.132Z,17.27
2018-10-20T11:10:09.475Z,17.22
2018-10-20T11:11:09.135Z,17.15
2018-10-20T11:12:09.309Z,17.09
2018-10-20T11:13:09.129Z,16.99
2018-10-20T11:14:09.191Z,16.97
2018-10-20T11:15:09.307Z,16.93
2018-10-20T11:16:09.149Z,16.87
2018-10-20T11:17:09.393Z,16.89
2018-10-20T11:18:09.304Z,16.84
2018-10-20T11:19:08.927Z,16.81
2018-10-20T11:20:09.001Z,16.71
2018-10-20T11:21:09.396Z,16.87
2018-10-20T11:22:09.147Z,16.79
2018-10-20T11:23:08.980Z,16.96
2018-10-20T11:24:09.209Z,17.06
2018-10-20T11:25:09.512Z,17.15
2018-10-20T11:26:09.133Z,17.27
2018-10-20T11:27:09.394Z,17.3
2018-10-20T11:28:09.138Z,17.34
2018-10-20T11:29:09.130Z,17.42
2018-10-20T11:30:09.648Z,17.38
2018-10-20T11:31:08.890Z,17.33
2018-10-20T11:32:09.147Z,17.31
2018-10-20T11:33:09.400Z,17.34
2018-10-20T11:34:09.402Z,17.34
2018-10-20T11:35:09.484Z,17.36
2018-10-20T11:36:09.889Z,17.42
2018-10-20T11:37:09.150Z,17.6
2018-10-20T11:38:09.402Z,17.64
2018-10-20T11:39:09.137Z,17.68
2018-10-20T11:40:09.272Z,17.72
2018-10-20T11:41:09.384Z,17.9
2018-10-20T11:42:09.594Z,17.97
2018-10-20T11:43:09.403Z,17.9
2018-10-20T11:44:08.885Z,17.87
2018-10-20T11:45:09.501Z,17.86
2018-10-20T11:46:09.416Z,17.74
2018-10-20T11:47:09.399Z,17.83
2018-10-20T11:48:09.550Z,17.79
2018-10-20T11:49:09.392Z,17.8
2018-10-20T11:50:09.511Z,17.72
2018-10-20T11:51:08.889Z,17.65
2018-10-20T11:52:09.419Z,17.68
2018-10-20T11:53:09.148Z,17.63
2018-10-20T11:54:09.313Z,17.59
2018-10-20T11:55:09.479Z,17.57
2018-10-20T11:56:09.180Z,17.54
2018-10-20T11:57:08.892Z,17.56
2018-10-20T11:58:09.170Z,17.57
2018-10-20T11:59:09.399Z,17.51
2018-10-20T12:00:09.575Z,17.59
2018-10-20T12:01:09.404Z,17.63
2018-10-20T12:02:09.148Z,17.64
2018-10-20T12:03:09.406Z,17.63
2018-10-20T12:04:08.879Z,17.67
2018-10-20T12:05:09.850Z,17.64
2018-10-20T12:06:12.898Z,17.68
2018-10-20T12:07:09.140Z,17.72
2018-10-20T12:08:09.151Z,17.74
2018-10-20T12:09:09.144Z,17.82
2018-10-20T12:10:09.194Z,17.74
2018-10-20T12:11:09.215Z,17.78
2018-10-20T12:12:09.287Z,17.86
2018-10-20T12:13:09.147Z,17.78
2018-10-20T12:14:09.628Z,17.76
2018-10-20T12:15:09.462Z,17.79
2018-10-20T12:16:09.408Z,17.9
2018-10-20T12:17:09.147Z,17.97
2018-10-20T12:18:09.593Z,17.87
2018-10-20T12:19:09.414Z,17.95
2018-10-20T12:20:09.555Z,18.1
2018-10-20T12:21:09.435Z,18.18
2018-10-20T12:22:09.401Z,18.1
2018-10-20T12:23:09.152Z,18.15
2018-10-20T12:24:09.731Z,18.15
2018-10-20T12:25:09.571Z,18.11
2018-10-20T12:26:09.157Z,18.2
2018-10-20T12:27:09.454Z,18.2
2018-10-20T12:28:09.327Z,18.25
2018-10-20T12:29:09.154Z,18.28
2018-10-20T12:30:09.330Z,18.31
2018-10-20T12:31:09.167Z,18.31
2018-10-20T12:32:09.159Z,18.37
2018-10-20T12:33:09.159Z,18.33
2018-10-20T12:34:09.159Z,18.41
2018-10-20T12:35:09.131Z,18.35
2018-10-20T12:36:09.654Z,18.43
2018-10-20T12:37:11.324Z,18.4
2018-10-20T12:38:09.166Z,18.33
2018-10-20T12:39:09.171Z,18.38
2018-10-20T12:40:09.221Z,18.37
2018-10-20T12:41:09.186Z,18.5
2018-10-20T12:42:09.298Z,18.38
2018-10-20T12:43:09.410Z,18.44
2018-10-20T12:44:09.415Z,18.38
2018-10-20T12:45:09.252Z,18.37
2018-10-20T12:46:09.424Z,18.31
2018-10-20T12:47:09.158Z,18.37
2018-10-20T12:48:09.421Z,18.28
2018-10-20T12:49:09.168Z,18.25
2018-10-20T12:50:09.545Z,18.26
2018-10-20T12:51:09.160Z,18.25
2018-10-20T12:52:09.159Z,18.23
2018-10-20T12:53:09.415Z,18.2
2018-10-20T12:54:09.296Z,18.23
2018-10-20T12:55:09.800Z,18.22